Daleville, AL

1:53 PM CST on November 23, 2014 (GMT -0600)
Cairns Army Air Field | Change Station
CLOSE
Current Station
Airport
Location: Ozark,
Elevation: 299 ft
Nearby Weather Stations
Active Advisory: Tornado Watch Active Notice: Record Report

Elev 299 ft 31.28 °N, 85.71 °W | Updated 8 minutes ago

Thunderstorm
Thunderstorm
66 °F
Feels Like 66 °F
N
10
Wind Variable Wind from SW
Gusts 23 mph

Today
High -- | Low -- °F
--% Chance of Precip.
Yesterday
High -- | Low -- °F
Precip. -- in
6:17 AM 4:41 PM
New Moon, 2% visible
Pressure 29.74 in
Visibility 10.0 miles
Clouds Overcast 5500 ft
Dew Point 63 °F
Humidity 88%
Rainfall 0.73 in
Snow Depth Not available.
UV 1 out of 12
Pollen .30 out of 12
Air Quality Not available.
Flu Activity Not available.
SPECI KOZR 231945Z AUTO 23009G20KT 10SM -DZ OVC055 19/17 A2974 RMK AO2 RAE1934DZB1944 TSE1910

More Conditions Fewer Conditions

Pressure 29.74 in
Visibility 10.0 miles
Clouds Overcast 5500 ft
Dew Point 63 °F
Humidity 88%
Rainfall 0.73 in
Snow Depth Not available.
UV 1 out of 12
Pollen .30 out of 12
Air Quality Not available.
Flu Activity Not available.
SPECI KOZR 231945Z AUTO 23009G20KT 10SM -DZ OVC055 19/17 A2974 RMK AO2 RAE1934DZB1944 TSE1910

More Conditions Fewer Conditions

10-Day Weather Forecast

Almanac

Astronomy

Nov. 23, 2014 Rise Set
Actual Time
Civil Twilight
Nautical Twilight
Astronomical Twilight
Moon
Length of Visible Light
Length of Day
Tomorrow will be .
, % of the Moon is Illuminated

Today's Extremes

State Highs State Lows

Community

WunderPhotos

Upload Photos

1,773,161 photos uploaded!

WunderBlogs® & News

Nearby

Air Quality

  Air Quality AQ Index Pollutant
Not available.

Snow Depth

Station Depth Elevation

Earthquake Activity

City Distance Mag. Time & Date
Minimum magnitude displayed is 2.5.

Coastal Water Temperatures

Place Temperature

Nearby Weather Stations